Skip Navigation Links
NOAA logo - Click to go to the NOAA homepage
NOAA's National Weather Service
Alaska Aviation Weather Unit
  NWS logo - Click to go to the NWS homepage
Left Navbar Graphic     09 AKDT = 17 GMT

   
NOAA is celebrating 200 years of science, service, and stewardship. Visit the NOAA 200th celebration Web site to learn more.
USA.gov is the U.S. Government's official Web portal to all Federal, state and local government Web resources and services.
Facebook
NWS on Facebook

Important Change Regarding the AAWU Web Presence

 

Over the last several months, the AAWU has been working to navigate its webpages to a nationally supported server. Security, as well as other needs, have necessitated the change.  In the process, we have made an effort to enhance the functionality of our website, as well as some of our products. As of June 20, 2017, aawu.arh.noaa.gov will be discontinued. The new AAWU web address is weather.gov/aawu. It is now live and will run in-parallel with the old site until it is discontinued. Please send any feedback or questions regarding the new webpages to nws.ar.aawu.webauthors@noaa.gov.  Thank you for your patience during this time of transition.
AAWU Home :: Display TAF Add Bookmark
TAF PATK 271141Z 2712/2812 VRB04KT P6SM FEW060 SCT090 BKN110
     FM271800 36005KT P6SM SCT050 BKN080
     FM272300 32006KT P6SM VCSH SCT040 BKN060 OVC080
     FM280500 VRB03KT P6SM VCSH SCT035 BKN050 OVC080=
METAR PATK 271153Z AUTO 00000KT 10SM SCT100 OVC120 02/01 A3014 RMK AO2
     SLP210 60015 70025 T00170011 10050 20017 53001 TSNO $=

METAR PATK 271253Z AUTO 04004KT 10SM SCT070 BKN090 BKN110 01/01 A3014
     RMK AO2 SLP210 T00110006 TSNO $=

METAR PATK 271353Z AUTO 02003KT 10SM FEW050 SCT070 01/01 A3014 RMK AO2
     SLP211 T00110006 TSNO $=

METAR PATK 271453Z AUTO 00000KT 10SM FEW060 01/01 A3014 RMK AO2 SLP212
     T00110006 53002 TSNO $=

METAR PATK 271553Z 02005KT 10SM FEW070 03/02 A3013 RMK AO2 SLP209
 T00280017 $=

METAR PATK 271653Z 01003KT 10SM SCT060 06/03 A3013 RMK AO2 SLP209
     T00560033 $=


NOAA's National Weather Service
Alaska Aviation Weather Unit
6930 Sand Lake Road
Anchorage, AK 99502-1845
Disclaimer
Credits
Glossary
Privacy Policy
About Us
Career Opportunities
Contact AAWU Internet Services Site last modified: April, 17th 2012